Time;durP1;ratioP1;P1;durP2;ratioP2;P2;SDS_P1;SDS_P2;PMS_P1;PMS_P2;Temp;Humidity;BMP_temperature;BMP_pressure;BME280_temperature;BME280_humidity;BME280_pressure;Samples;Min_cycle;Max_cycle;Signal;HPM_P1;HPM_P2
2021/06/28 00:00:41;;;;;;;5.63;3.30;;;;;;;16.04;79.49;101718.34;5112307;27;21238;-73
2021/06/28 00:03:06;;;;;;;5.07;2.87;;;;;;;16.00;79.71;101703.59;5107667;27;20446;-72
2021/06/28 00:05:32;;;;;;;5.70;3.50;;;;;;;16.21;79.50;101724.13;5105415;27;20199;-73
2021/06/28 00:07:57;;;;;;;5.10;3.47;;;;;;;15.88;79.33;101674.69;5107496;27;20318;-73
2021/06/28 00:10:26;;;;;;;4.50;3.10;;;;;;;16.15;79.48;101724.97;5110947;27;20339;-72
2021/06/28 00:12:54;;;;;;;2.97;2.67;;;;;;;16.11;79.61;101739.16;5111080;27;20212;-73
2021/06/28 00:15:24;;;;;;;5.10;3.80;;;;;;;15.79;80.35;101703.84;5115267;27;20599;-73
2021/06/28 00:17:51;;;;;;;5.53;3.03;;;;;;;15.97;80.66;101746.50;5111639;27;20494;-73
2021/06/28 00:20:18;;;;;;;5.03;3.63;;;;;;;15.76;79.93;101678.06;5107355;27;20927;-73
2021/06/28 00:22:45;;;;;;;3.73;3.20;;;;;;;16.10;79.88;101738.31;5112928;27;20439;-72
2021/06/28 00:25:13;;;;;;;6.27;3.50;;;;;;;16.13;79.48;101734.34;5107433;27;20526;-73
2021/06/28 00:27:40;;;;;;;3.70;3.40;;;;;;;16.00;79.71;101735.25;5107518;27;20439;-73
2021/06/28 00:30:12;;;;;;;5.03;3.63;;;;;;;15.98;79.56;101700.28;5110742;27;20478;-73
2021/06/28 00:32:38;;;;;;;8.00;3.90;;;;;;;15.97;79.81;101732.97;5113461;27;20462;-73
2021/06/28 00:35:05;;;;;;;5.03;3.40;;;;;;;15.99;79.78;101726.28;5108157;27;20444;-73
2021/06/28 00:37:31;;;;;;;5.23;3.40;;;;;;;16.00;79.66;101724.44;5109589;27;20439;-73
2021/06/28 00:39:56;;;;;;;5.43;3.90;;;;;;;15.80;80.37;101721.78;5108601;27;20486;-73
2021/06/28 00:42:25;;;;;;;5.63;4.10;;;;;;;15.66;81.55;101710.13;5107250;27;20178;-72
2021/06/28 00:44:52;;;;;;;5.03;4.20;;;;;;;15.80;80.90;101705.53;5112819;27;20181;-72
2021/06/28 00:47:18;;;;;;;5.60;4.57;;;;;;;15.44;80.17;101641.94;5110384;27;20479;-72
2021/06/28 00:49:44;;;;;;;7.57;5.10;;;;;;;15.61;81.36;101704.50;5111945;27;20461;-73
2021/06/28 00:52:10;;;;;;;6.93;4.63;;;;;;;15.82;81.06;101704.28;5108098;27;20802;-73
2021/06/28 00:54:37;;;;;;;5.43;4.93;;;;;;;15.65;81.21;101672.44;5111973;27;20185;-73
2021/06/28 00:57:03;;;;;;;7.67;5.33;;;;;;;15.84;81.02;101695.13;5111957;27;20438;-73
2021/06/28 00:59:28;;;;;;;5.83;5.23;;;;;;;15.67;81.27;101690.13;5111917;27;20458;-73
2021/06/28 01:01:54;;;;;;;6.10;5.40;;;;;;;15.98;80.61;101688.63;5112010;27;20487;-73
2021/06/28 01:04:19;;;;;;;6.70;5.60;;;;;;;15.53;80.85;101667.69;5110188;27;20637;-73
2021/06/28 01:06:45;;;;;;;7.83;5.70;;;;;;;15.52;80.45;101647.13;5087857;28;20600;-73
2021/06/28 01:09:10;;;;;;;6.93;6.23;;;;;;;15.69;81.25;101681.84;5110817;27;20197;-73
2021/06/28 01:11:36;;;;;;;6.40;5.80;;;;;;;15.51;81.72;101674.38;5111361;27;20679;-73
2021/06/28 01:14:03;;;;;;;11.30;6.43;;;;;;;15.71;81.30;101696.00;5110061;28;20272;-73
2021/06/28 01:16:29;;;;;;;7.57;6.10;;;;;;;15.70;81.50;101688.91;5110292;27;20188;-73
2021/06/28 01:18:54;;;;;;;6.50;5.90;;;;;;;15.70;81.69;101688.91;5112474;27;20467;-73
2021/06/28 01:21:20;;;;;;;8.90;6.40;;;;;;;15.62;81.77;101689.94;5111204;27;20427;-73
2021/06/28 01:23:46;;;;;;;8.50;6.20;;;;;;;15.39;81.89;101676.91;5113705;28;20678;-73
2021/06/28 01:26:12;;;;;;;11.03;6.53;;;;;;;14.65;81.75;101532.94;5111397;28;20209;-73
2021/06/28 01:28:39;;;;;;;6.90;6.30;;;;;;;15.55;82.16;101687.25;5090284;28;20538;-73
2021/06/28 01:31:10;;;;;;;10.33;5.57;;;;;;;15.77;81.23;101674.34;5109733;28;20213;-73
2021/06/28 01:33:36;;;;;;;7.47;6.10;;;;;;;15.70;81.40;101678.09;5113790;27;20442;-73
2021/06/28 01:36:03;;;;;;;8.27;6.07;;;;;;;15.57;82.10;101678.94;5115282;27;20443;-73
2021/06/28 01:38:29;;;;;;;7.30;6.37;;;;;;;15.19;81.56;101597.69;5111937;27;20447;-73
2021/06/28 01:40:54;;;;;;;7.37;5.87;;;;;;;15.39;81.80;101655.28;5112391;27;20450;-73
2021/06/28 01:43:23;;;;;;;6.50;5.07;;;;;;;15.54;81.20;101641.50;5118438;27;20202;-73
2021/06/28 01:45:50;;;;;;;8.77;5.80;;;;;;;15.68;81.45;101678.31;5114770;27;20277;-72
2021/06/28 01:50:52;;;;;;;5.27;4.77;;;;;;;15.59;82.11;101672.28;5654516;22;20502;-74
2021/06/28 01:55:52;;;;;;;7.17;4.83;;;;;;;15.77;80.79;101643.75;5320367;22;20525;-76
2021/06/28 01:58:18;;;;;;;5.97;4.47;;;;;;;14.88;80.80;101502.78;5047877;28;21147;-75
2021/06/28 02:00:52;;;;;;;4.37;3.90;;;;;;;15.64;81.22;101635.63;5048086;28;20286;-75
2021/06/28 02:03:20;;;;;;;4.43;4.00;;;;;;;15.58;81.66;101640.03;5048501;28;20175;-75
2021/06/28 02:05:52;;;;;;;4.93;3.40;;;;;;;16.04;80.54;101653.41;5037854;28;20493;-76
2021/06/28 02:08:21;;;;;;;4.23;3.83;;;;;;;15.44;82.06;101619.47;5033580;28;20448;-75
2021/06/28 02:10:53;;;;;;;5.50;3.87;;;;;;;15.46;82.00;101596.59;5035773;28;20980;-75
2021/06/28 02:13:20;;;;;;;5.37;4.07;;;;;;;15.48;83.01;101654.00;5037375;28;21090;-75
2021/06/28 02:15:46;;;;;;;5.10;4.00;;;;;;;14.85;82.42;101513.19;5026743;28;20462;-75
2021/06/28 02:18:11;;;;;;;5.33;4.37;;;;;;;15.59;83.24;101644.38;5044852;28;20508;-75
2021/06/28 02:20:37;;;;;;;5.87;3.40;;;;;;;15.35;83.03;101630.50;5034725;28;20562;-77
2021/06/28 02:23:22;;;;;;;7.10;4.70;;;;;;;15.59;83.07;101644.38;5036549;28;20636;-76
2021/06/28 02:26:02;;;;;;;5.67;4.23;;;;;;;15.75;82.62;101637.72;5036288;28;20233;-76
2021/06/28 02:28:30;;;;;;;6.13;3.67;;;;;;;15.62;82.65;101625.03;5035068;28;20802;-76
2021/06/28 02:30:57;;;;;;;9.47;3.97;;;;;;;15.62;83.01;101633.13;5030822;28;20473;-76
2021/06/28 02:33:23;;;;;;;4.30;3.90;;;;;;;15.51;83.05;101614.91;5029847;28;20485;-75
2021/06/28 02:35:48;;;;;;;5.30;3.90;;;;;;;15.69;82.16;101620.47;5031841;28;20489;-76
2021/06/28 02:38:14;;;;;;;8.17;4.80;;;;;;;15.10;82.91;101565.50;5029639;28;20240;-76
2021/06/28 02:40:40;;;;;;;7.53;4.27;;;;;;;15.02;83.08;101537.88;5035258;28;20611;-76
2021/06/28 02:43:06;;;;;;;7.80;4.07;;;;;;;14.89;83.89;101534.16;5032180;28;20903;-76
2021/06/28 02:45:31;;;;;;;5.20;4.37;;;;;;;15.53;83.17;101647.94;5030470;28;20201;-76
2021/06/28 02:47:57;;;;;;;4.63;4.00;;;;;;;15.00;82.39;101512.94;5035871;28;20199;-76
2021/06/28 02:50:22;;;;;;;5.10;3.90;;;;;;;15.82;82.27;101638.50;5032813;28;20777;-76
2021/06/28 02:52:47;;;;;;;8.27;4.00;;;;;;;14.95;82.81;101497.38;5031304;28;20714;-76
2021/06/28 02:55:13;;;;;;;5.00;4.50;;;;;;;15.51;82.62;101599.50;5035040;28;20207;-76
2021/06/28 02:57:40;;;;;;;6.87;4.80;;;;;;;15.45;82.49;101572.47;5033150;28;20184;-76
2021/06/28 03:00:12;;;;;;;5.93;4.37;;;;;;;15.53;82.48;101572.22;5034624;28;20457;-76
2021/06/28 03:02:38;;;;;;;5.60;4.80;;;;;;;15.86;82.49;101628.13;5029217;28;25542;-76
2021/06/28 03:05:05;;;;;;;5.73;4.10;;;;;;;15.35;82.34;101570.22;5031342;28;20471;-76
2021/06/28 03:07:31;;;;;;;6.40;4.87;;;;;;;14.13;82.83;101379.97;5034761;28;21335;-76
2021/06/28 03:09:56;;;;;;;4.60;4.23;;;;;;;15.68;82.96;101628.78;5031711;28;20438;-76
2021/06/28 03:12:22;;;;;;;8.40;4.50;;;;;;;15.83;82.79;101623.97;5035629;28;20271;-76
2021/06/28 03:14:47;;;;;;;4.83;4.23;;;;;;;15.62;83.30;101624.19;5034033;28;20200;-76
2021/06/28 03:17:12;;;;;;;6.40;4.50;;;;;;;15.25;83.01;101561.75;5031496;28;20240;-76
2021/06/28 03:19:38;;;;;;;9.90;5.00;;;;;;;15.20;83.68;101564.25;5032427;28;20199;-76
2021/06/28 03:22:03;;;;;;;5.20;4.40;;;;;;;15.34;82.98;101573.97;5029499;28;20544;-76
2021/06/28 03:24:29;;;;;;;5.50;4.67;;;;;;;15.49;83.13;101587.22;5030237;28;20189;-76
2021/06/28 03:26:54;;;;;;;5.77;4.43;;;;;;;15.55;83.74;101618.81;5032849;28;20185;-76
2021/06/28 03:29:20;;;;;;;6.40;4.23;;;;;;;14.72;83.86;101478.09;5032405;28;20270;-76
2021/06/28 03:31:45;;;;;;;6.43;4.00;;;;;;;15.11;82.90;101504.19;5031192;28;20204;-76
2021/06/28 03:34:10;;;;;;;6.27;3.70;;;;;;;15.65;83.34;101591.31;5029522;28;20263;-76
2021/06/28 03:36:36;;;;;;;7.23;4.20;;;;;;;15.07;83.47;101502.94;5036031;28;20672;-76
2021/06/28 03:39:02;;;;;;;7.93;4.73;;;;;;;15.85;83.15;101610.19;5029958;28;20230;-75
2021/06/28 03:41:27;;;;;;;10.00;4.50;;;;;;;15.86;83.50;101606.47;5029363;28;20180;-76
2021/06/28 03:43:53;;;;;;;4.77;4.20;;;;;;;15.02;83.88;101508.16;5027881;28;20787;-76
2021/06/28 03:46:18;;;;;;;8.40;4.47;;;;;;;14.24;83.14;101360.44;5028289;28;20346;-76
2021/06/28 03:48:44;;;;;;;6.00;4.40;;;;;;;15.13;83.38;101491.31;5032260;28;20193;-76
2021/06/28 03:51:10;;;;;;;4.13;3.70;;;;;;;15.52;83.87;101565.16;5026436;28;20295;-76
2021/06/28 03:53:35;;;;;;;7.03;4.63;;;;;;;14.92;83.64;101470.78;5028125;28;21048;-76
2021/06/28 03:56:06;;;;;;;5.60;3.90;;;;;;;15.23;83.84;101518.69;5023154;28;20247;-76
2021/06/28 03:58:34;;;;;;;6.00;4.27;;;;;;;15.88;83.38;101601.66;5032578;28;20185;-76
2021/06/28 04:00:59;;;;;;;6.00;4.20;;;;;;;15.38;83.24;101508.44;5029547;28;20446;-76
2021/06/28 04:03:27;;;;;;;6.83;4.23;;;;;;;14.88;83.60;101442.53;5023912;28;20442;-76
2021/06/28 04:05:52;;;;;;;4.97;3.70;;;;;;;15.08;83.75;101473.03;5028597;28;20215;-76
2021/06/28 04:08:17;;;;;;;7.50;3.90;;;;;;;15.08;84.05;101464.91;5034880;28;20849;-76
2021/06/28 04:10:43;;;;;;;6.33;3.87;;;;;;;15.91;84.40;101607.50;5031788;28;20215;-76
2021/06/28 04:13:08;;;;;;;5.30;3.80;;;;;;;15.28;83.67;101477.53;5034045;28;20191;-76
2021/06/28 04:15:33;;;;;;;9.17;4.20;;;;;;;16.18;83.44;101605.47;5029966;28;20731;-76
2021/06/28 04:17:59;;;;;;;7.07;4.27;;;;;;;16.21;83.08;101605.03;5032412;28;20266;-76
2021/06/28 04:20:27;;;;;;;8.27;4.57;;;;;;;15.36;83.77;101486.22;5028621;28;25255;-76
2021/06/28 04:22:53;;;;;;;15.23;4.77;;;;;;;16.49;82.69;101595.69;5023318;28;20200;-76
2021/06/28 04:25:21;;;;;;;7.20;4.40;;;;;;;16.49;82.93;101612.75;5025348;28;20466;-76
2021/06/28 04:27:47;;;;;;;8.60;4.23;;;;;;;16.55;82.95;101602.94;5027620;28;20191;-76
2021/06/28 04:30:15;;;;;;;5.80;3.97;;;;;;;16.56;82.89;101606.47;5031433;28;20473;-77
2021/06/28 04:32:41;;;;;;;5.03;4.53;;;;;;;16.24;82.78;101560.44;5028720;28;20447;-77
2021/06/28 04:35:09;;;;;;;8.10;4.30;;;;;;;16.42;82.77;101586.78;5031175;28;21049;-76
2021/06/28 04:37:35;;;;;;;8.53;4.47;;;;;;;16.61;82.84;101607.47;5029860;28;20943;-76
2021/06/28 04:40:03;;;;;;;6.93;4.73;;;;;;;16.66;82.80;101614.91;5032305;28;21003;-75
2021/06/28 04:42:29;;;;;;;7.50;3.97;;;;;;;16.92;81.66;101622.03;5018357;28;20497;-75
2021/06/28 04:44:54;;;;;;;9.50;4.37;;;;;;;16.17;81.63;101490.13;5029993;28;20466;-75
2021/06/28 04:47:19;;;;;;;7.13;4.17;;;;;;;16.02;81.73;101467.97;5033979;28;20190;-75
2021/06/28 04:49:45;;;;;;;7.83;5.07;;;;;;;17.08;81.64;101634.19;5033658;28;20193;-75
2021/06/28 04:52:10;;;;;;;7.03;4.73;;;;;;;16.82;82.05;101600.88;5033203;28;20574;-75
2021/06/28 04:54:36;;;;;;;7.60;4.87;;;;;;;16.59;81.96;101552.69;5032337;28;20184;-75
2021/06/28 04:57:02;;;;;;;8.80;4.80;;;;;;;16.76;81.75;101560.25;5033481;28;20200;-75
2021/06/28 04:59:27;;;;;;;8.20;4.90;;;;;;;16.38;81.80;101501.63;5027774;28;20279;-75
2021/06/28 05:01:52;;;;;;;9.50;5.53;;;;;;;16.76;81.57;101550.28;5029723;28;20287;-75
2021/06/28 05:04:18;;;;;;;7.50;5.40;;;;;;;16.25;82.13;101487.13;5032517;28;20192;-75
2021/06/28 05:06:43;;;;;;;7.00;4.47;;;;;;;16.73;82.57;101556.13;5026573;28;20212;-75
2021/06/28 05:09:09;;;;;;;10.50;5.03;;;;;;;17.09;82.00;101589.78;5026044;28;20238;-75
2021/06/28 05:11:36;;;;;;;11.27;5.60;;;;;;;17.32;81.18;101606.22;5023887;28;20699;-75
2021/06/28 05:14:02;;;;;;;9.50;4.90;;;;;;;16.58;82.03;101525.84;5026100;28;20283;-75
2021/06/28 05:16:27;;;;;;;6.97;4.80;;;;;;;16.97;82.32;101578.84;5026767;28;20458;-75
2021/06/28 05:18:53;;;;;;;9.03;5.80;;;;;;;17.24;81.83;101605.66;5023793;28;20459;-75
2021/06/28 05:21:18;;;;;;;6.93;4.27;;;;;;;17.15;81.74;101591.59;5028820;28;20670;-78
2021/06/28 05:23:43;;;;;;;6.67;4.40;;;;;;;17.15;81.68;101600.56;5023996;28;21295;-76
2021/06/28 05:26:09;;;;;;;7.50;4.83;;;;;;;17.10;81.34;101580.59;5024112;28;20279;-77
2021/06/28 05:28:34;;;;;;;8.63;4.70;;;;;;;17.46;81.04;101606.91;5024005;28;20197;-74
2021/06/28 05:31:00;;;;;;;6.97;5.60;;;;;;;17.29;81.11;101609.38;5023662;28;20275;-76
2021/06/28 05:33:26;;;;;;;7.53;5.27;;;;;;;16.48;80.52;101469.47;5026542;28;20267;-75
2021/06/28 05:35:51;;;;;;;6.13;4.73;;;;;;;17.39;81.10;101566.31;5028012;28;20465;-76
2021/06/28 05:38:16;;;;;;;7.47;5.13;;;;;;;17.13;80.92;101534.06;5022615;28;20671;-76
2021/06/28 05:40:42;;;;;;;6.23;5.20;;;;;;;17.49;81.16;101590.16;5023337;28;20190;-77
2021/06/28 05:43:07;;;;;;;6.07;4.80;;;;;;;17.38;81.51;101558.38;5019332;28;20208;-76
2021/06/28 05:45:33;;;;;;;5.37;4.57;;;;;;;17.39;81.91;101560.06;5019005;28;20590;-76
2021/06/28 05:47:58;;;;;;;6.93;4.80;;;;;;;17.34;81.39;101522.75;5027790;28;20192;-76
2021/06/28 05:50:25;;;;;;;8.83;5.10;;;;;;;17.66;81.31;101582.25;5032454;28;20871;-76
2021/06/28 05:52:50;;;;;;;9.37;5.57;;;;;;;17.39;81.48;101538.38;5034921;28;20192;-76
2021/06/28 05:55:16;;;;;;;6.73;4.97;;;;;;;17.06;81.12;101481.81;5029373;28;20460;-76
2021/06/28 05:57:42;;;;;;;12.03;5.70;;;;;;;17.77;81.31;101573.34;5035020;28;20188;-76
2021/06/28 06:00:10;;;;;;;8.90;5.10;;;;;;;17.96;80.86;101576.88;5028213;28;20179;-76
2021/06/28 06:02:35;;;;;;;5.60;4.90;;;;;;;17.98;81.28;101573.94;5026724;28;20468;-76
2021/06/28 06:05:02;;;;;;;7.77;5.27;;;;;;;16.82;80.68;101394.13;5028504;28;21045;-76
2021/06/28 06:07:27;;;;;;;8.23;6.00;;;;;;;17.95;80.90;101563.53;5027842;28;20246;-77
2021/06/28 06:09:53;;;;;;;6.30;5.70;;;;;;;18.12;80.56;101590.88;5030631;28;20446;-76
2021/06/28 06:12:18;;;;;;;6.47;5.10;;;;;;;17.88;80.95;101533.78;5029996;28;20180;-77
2021/06/28 06:14:43;;;;;;;9.43;5.00;;;;;;;18.28;80.25;101576.63;5032420;28;20200;-76
2021/06/28 06:17:09;;;;;;;7.90;6.30;;;;;;;18.05;79.88;101542.94;5035300;28;20200;-76
2021/06/28 06:19:35;;;;;;;6.70;5.27;;;;;;;16.80;80.42;101366.44;5036791;28;20600;-77
2021/06/28 06:22:00;;;;;;;6.57;5.87;;;;;;;18.34;80.65;101585.72;5036020;28;20527;-77
2021/06/28 06:24:29;;;;;;;10.97;5.50;;;;;;;18.49;80.29;101578.00;5034607;28;20530;-76
2021/06/28 06:26:56;;;;;;;6.10;5.50;;;;;;;17.88;79.81;101479.50;5033511;28;20188;-76
2021/06/28 06:29:23;;;;;;;9.90;6.73;;;;;;;17.43;79.80;101401.25;5032567;28;20435;-76
2021/06/28 06:31:49;;;;;;;7.87;5.50;;;;;;;18.44;79.00;101556.13;5029470;28;20473;-77
2021/06/28 06:34:15;;;;;;;6.70;5.67;;;;;;;18.67;79.74;101569.72;5037367;28;20449;-77
2021/06/28 06:36:40;;;;;;;5.73;5.23;;;;;;;18.63;79.29;101570.44;5037717;28;20418;-78
2021/06/28 06:39:05;;;;;;;6.43;5.83;;;;;;;18.78;79.73;101575.47;5035106;28;20233;-76
2021/06/28 06:41:31;;;;;;;9.47;7.23;;;;;;;18.70;78.70;101577.41;5030860;28;20225;-77
2021/06/28 06:43:56;;;;;;;9.70;6.07;;;;;;;18.62;78.86;101555.19;5036294;28;20551;-77
2021/06/28 06:46:22;;;;;;;8.23;6.30;;;;;;;18.17;78.70;101477.81;5035791;28;20561;-76
2021/06/28 06:48:47;;;;;;;8.03;6.10;;;;;;;18.69;78.46;101536.91;5036744;28;20179;-76
2021/06/28 06:51:13;;;;;;;6.00;5.40;;;;;;;19.11;78.22;101566.69;5028222;28;20208;-76
2021/06/28 06:53:40;;;;;;;6.57;5.90;;;;;;;19.15;78.14;101566.00;5032135;28;20214;-77
2021/06/28 06:56:05;;;;;;;7.13;5.83;;;;;;;18.94;77.53;101525.81;5032281;28;21394;-77
2021/06/28 06:58:33;;;;;;;12.90;7.40;;;;;;;18.54;77.27;101464.00;5032806;28;20592;-77
2021/06/28 07:00:59;;;;;;;12.53;8.70;;;;;;;18.17;76.86;101390.09;5032739;28;20192;-77
2021/06/28 07:03:24;;;;;;;10.03;7.93;;;;;;;19.25;77.30;101559.13;5033583;28;20804;-76
2021/06/28 07:05:49;;;;;;;8.30;7.50;;;;;;;18.24;76.73;101382.66;5029442;28;20212;-77
2021/06/28 07:08:15;;;;;;;10.73;8.10;;;;;;;19.58;76.86;101563.88;5030961;28;20196;-77
2021/06/28 07:10:42;;;;;;;8.10;7.30;;;;;;;19.39;76.85;101528.69;5036752;28;20196;-77
2021/06/28 07:13:08;;;;;;;7.63;6.83;;;;;;;19.08;76.08;101450.25;5032588;28;20445;-77
2021/06/28 07:15:33;;;;;;;12.67;7.57;;;;;;;19.36;76.64;101517.47;5025868;28;20463;-77
2021/06/28 07:17:59;;;;;;;8.63;7.53;;;;;;;18.84;76.64;101427.75;5034738;28;20188;-77
2021/06/28 07:20:24;;;;;;;6.17;5.10;;;;;;;19.71;76.46;101560.09;5033357;28;20188;-77
2021/06/28 07:22:52;;;;;;;8.63;6.70;;;;;;;19.66;76.27;101530.88;5034238;28;20185;-76
2021/06/28 07:25:17;;;;;;;9.10;6.90;;;;;;;19.50;75.18;101499.81;5036791;28;20205;-77
2021/06/28 07:27:44;;;;;;;6.97;6.27;;;;;;;20.04;75.55;101578.41;5033646;28;20444;-77
2021/06/28 07:30:12;;;;;;;9.60;6.70;;;;;;;19.84;75.48;101574.22;5034747;28;20663;-76
2021/06/28 07:32:37;;;;;;;8.00;6.77;;;;;;;19.39;75.78;101477.00;5029858;28;20449;-76
2021/06/28 07:35:06;;;;;;;8.60;6.27;;;;;;;19.88;75.18;101525.59;5027715;28;20550;-76
2021/06/28 07:37:31;;;;;;;7.27;6.57;;;;;;;19.81;75.58;101528.44;5033627;28;20173;-76
2021/06/28 07:39:57;;;;;;;6.70;6.10;;;;;;;20.04;75.16;101541.09;5031299;28;20442;-76
2021/06/28 07:42:24;;;;;;;10.37;6.60;;;;;;;19.60;75.11;101483.66;5034532;28;20203;-76
2021/06/28 07:44:52;;;;;;;7.10;6.40;;;;;;;19.88;75.06;101506.53;5028757;28;20573;-76
2021/06/28 07:47:17;;;;;;;7.70;7.00;;;;;;;20.20;74.35;101564.00;5033979;28;20431;-76
2021/06/28 07:49:43;;;;;;;6.27;5.43;;;;;;;20.08;75.35;101566.78;5032898;28;21199;-77
2021/06/28 07:52:09;;;;;;;7.37;6.67;;;;;;;20.15;75.43;101536.69;5031126;28;20196;-76
2021/06/28 07:54:36;;;;;;;6.97;6.23;;;;;;;20.29;75.30;101558.97;5029495;28;20184;-76
2021/06/28 07:57:03;;;;;;;6.87;6.20;;;;;;;20.37;74.89;101547.69;5022990;28;20542;-76
2021/06/28 07:59:28;;;;;;;8.57;7.00;;;;;;;20.16;74.72;101507.53;5029281;28;20452;-77
2021/06/28 08:01:53;;;;;;;7.50;6.70;;;;;;;20.17;74.80;101504.59;5031641;28;20809;-76
2021/06/28 08:04:19;;;;;;;7.30;6.67;;;;;;;20.15;74.99;101500.44;5031532;28;20193;-79
2021/06/28 08:06:44;;;;;;;7.30;6.50;;;;;;;20.13;74.38;101487.06;5033854;28;20227;-78
2021/06/28 08:09:09;;;;;;;8.00;7.30;;;;;;;19.90;74.30;101447.19;5034007;28;20239;-78
2021/06/28 08:11:35;;;;;;;8.10;6.63;;;;;;;20.37;74.17;101512.28;5038123;28;20580;-79
2021/06/28 08:14:02;;;;;;;7.40;6.70;;;;;;;20.04;74.32;101443.06;5033781;28;20346;-78
2021/06/28 08:16:27;;;;;;;7.37;6.67;;;;;;;19.96;74.11;101420.88;5029599;28;20209;-78
2021/06/28 08:18:53;;;;;;;7.80;7.10;;;;;;;20.70;74.01;101535.97;5030117;28;20496;-77
2021/06/28 08:21:20;;;;;;;11.67;8.20;;;;;;;19.92;72.89;101406.13;5035786;28;20172;-78
2021/06/28 08:23:45;;;;;;;9.30;6.87;;;;;;;20.37;73.56;101482.31;5032457;28;20449;-78
2021/06/28 08:26:11;;;;;;;9.37;7.60;;;;;;;20.35;74.75;101429.94;5031840;28;20550;-78
2021/06/28 08:28:38;;;;;;;8.17;6.50;;;;;;;21.01;73.70;101543.78;5035925;28;20216;-79
2021/06/28 08:31:04;;;;;;;7.17;6.57;;;;;;;20.45;73.35;101448.34;5032297;28;20191;-78
2021/06/28 08:33:30;;;;;;;8.47;7.30;;;;;;;21.16;72.45;101543.97;5032154;28;20472;-78
2021/06/28 08:35:55;;;;;;;8.17;7.37;;;;;;;20.30;71.46;101421.69;5031509;28;20208;-78
2021/06/28 08:38:21;;;;;;;7.63;6.93;;;;;;;20.17;71.57;101408.44;5027870;28;20180;-78
2021/06/28 08:40:49;;;;;;;7.33;6.50;;;;;;;20.85;72.55;101469.94;5030749;28;20694;-78
2021/06/28 08:43:15;;;;;;;9.97;7.00;;;;;;;20.62;73.30;101423.81;5033710;28;20444;-79
2021/06/28 08:45:42;;;;;;;15.07;6.90;;;;;;;21.32;72.46;101525.91;5033834;28;20459;-78
2021/06/28 08:48:11;;;;;;;9.67;6.97;;;;;;;21.36;72.04;101527.91;5029304;28;20259;-77
2021/06/28 08:50:39;;;;;;;7.63;6.87;;;;;;;20.53;71.77;101390.72;5021818;28;20475;-78
2021/06/28 08:53:06;;;;;;;7.10;6.50;;;;;;;21.42;71.51;101524.16;5030616;28;20517;-78
2021/06/28 08:55:32;;;;;;;8.23;6.50;;;;;;;20.78;71.00;101450.22;5034092;28;20458;-77
2021/06/28 08:57:57;;;;;;;8.30;7.50;;;;;;;20.70;72.48;101398.84;5031966;28;20440;-78
2021/06/28 09:00:23;;;;;;;6.27;5.77;;;;;;;21.57;72.54;101530.88;5023244;28;20702;-78
2021/06/28 09:03:01;;;;;;;7.53;6.33;;;;;;;21.70;72.13;101514.09;5029978;28;20207;-77
2021/06/28 09:05:27;;;;;;;7.00;6.40;;;;;;;21.83;71.18;101524.59;5027631;28;20203;-77
2021/06/28 09:08:24;;;;;;;7.43;6.73;;;;;;;21.79;70.77;101517.19;5028737;28;20457;-77
2021/06/28 09:10:50;;;;;;;9.37;7.63;;;;;;;21.89;70.44;101528.22;4989402;28;20524;-77
2021/06/28 09:13:15;;;;;;;8.10;7.30;;;;;;;21.92;70.12;101502.28;5036610;28;20442;-78
2021/06/28 09:15:44;;;;;;;8.00;7.20;;;;;;;21.15;71.24;101425.06;5029968;28;20788;-78
2021/06/28 09:18:24;;;;;;;6.43;5.90;;;;;;;21.74;71.94;101454.34;5027677;28;20187;-77
2021/06/28 09:21:03;;;;;;;8.17;7.37;;;;;;;21.99;70.96;101511.13;5032150;28;20434;-77
2021/06/28 09:23:28;;;;;;;7.20;6.50;;;;;;;21.84;70.66;101468.94;5030835;28;20460;-77
2021/06/28 09:25:56;;;;;;;6.80;6.10;;;;;;;20.86;68.43;101329.81;5034761;28;20532;-77
2021/06/28 09:28:37;;;;;;;6.10;5.60;;;;;;;22.10;69.55;101510.09;5037710;28;20184;-77
2021/06/28 09:31:03;;;;;;;7.03;6.43;;;;;;;21.78;68.91;101471.84;5033667;28;20460;-77
2021/06/28 09:33:28;;;;;;;6.13;5.60;;;;;;;21.71;68.85;101422.91;5041847;28;20460;-77
2021/06/28 09:35:54;;;;;;;6.50;5.90;;;;;;;21.81;71.09;101435.81;5036566;28;20223;-78
2021/06/28 09:38:38;;;;;;;7.63;6.80;;;;;;;22.46;70.75;101496.78;5037209;28;20188;-77
2021/06/28 09:41:36;;;;;;;7.83;7.13;;;;;;;22.38;69.50;101492.63;5028222;28;20172;-77
2021/06/28 09:44:07;;;;;;;6.73;6.03;;;;;;;22.74;70.10;101522.94;4984399;28;20821;-77
2021/06/28 09:46:35;;;;;;;7.10;6.50;;;;;;;22.60;69.32;101522.56;5029282;28;20457;-78
2021/06/28 09:49:00;;;;;;;7.77;6.27;;;;;;;22.16;70.02;101440.78;5028637;28;20443;-77
2021/06/28 09:51:36;;;;;;;8.90;7.77;;;;;;;22.64;69.53;101514.66;5031423;28;20450;-77
2021/06/28 09:54:07;;;;;;;9.50;7.80;;;;;;;22.65;69.94;101522.63;5033860;28;20207;-77
2021/06/28 09:56:40;;;;;;;7.80;7.10;;;;;;;22.75;69.36;101522.66;5035215;28;21068;-77
2021/06/28 09:59:27;;;;;;;9.03;7.50;;;;;;;22.76;68.97;101518.03;5034602;28;20425;-77
2021/06/28 10:02:14;;;;;;;7.63;6.70;;;;;;;22.92;69.37;101513.47;5032384;28;20464;-77
2021/06/28 10:07:19;;;;;;;7.87;7.13;;;;;;;23.20;68.93;101521.31;5036321;28;20842;-78
2021/06/28 10:09:45;;;;;;;18.73;6.77;;;;;;;22.97;68.86;101486.16;5034294;28;20442;-77
2021/06/28 10:12:18;;;;;;;7.60;6.80;;;;;;;23.20;68.64;101528.69;5035842;28;20463;-77
2021/06/28 10:14:44;;;;;;;7.97;7.27;;;;;;;22.61;68.00;101423.06;5033091;28;20185;-77
2021/06/28 10:17:10;;;;;;;8.87;7.60;;;;;;;22.86;67.18;101473.50;5031601;28;20438;-77
2021/06/28 10:19:36;;;;;;;6.70;6.07;;;;;;;23.20;66.40;101521.31;5034432;28;20442;-77
2021/06/28 10:22:01;;;;;;;8.30;6.90;;;;;;;23.06;67.88;101484.59;5035047;28;20177;-77
2021/06/28 10:24:27;;;;;;;8.07;6.17;;;;;;;23.04;65.92;101481.28;5033415;28;20185;-76
2021/06/28 10:26:53;;;;;;;7.43;6.30;;;;;;;23.36;67.87;101519.44;5035057;28;20189;-76
2021/06/28 10:29:18;;;;;;;8.97;6.00;;;;;;;23.24;67.06;101488.75;5034009;28;20607;-76
2021/06/28 10:31:44;;;;;;;9.60;8.20;;;;;;;22.82;65.81;101425.88;5030500;28;21090;-76
2021/06/28 10:34:13;;;;;;;7.20;6.50;;;;;;;23.45;66.67;101493.19;5031930;28;20184;-77
2021/06/28 10:36:39;;;;;;;8.50;7.20;;;;;;;23.34;66.83;101483.31;5033767;28;20780;-76
2021/06/28 10:39:07;;;;;;;7.17;6.50;;;;;;;23.17;66.94;101423.34;5038021;28;20446;-78
2021/06/28 10:41:44;;;;;;;10.27;6.23;;;;;;;23.73;65.40;101512.22;5037175;28;20970;-77
2021/06/28 10:44:20;;;;;;;6.47;5.83;;;;;;;23.50;65.63;101453.25;5039172;28;20440;-77
2021/06/28 10:46:48;;;;;;;6.27;5.67;;;;;;;23.85;64.40;101510.84;5036506;28;20573;-76
2021/06/28 10:49:15;;;;;;;7.50;5.77;;;;;;;23.40;65.15;101397.41;5034851;28;20435;-77
2021/06/28 10:51:48;;;;;;;6.90;5.57;;;;;;;23.90;63.93;101499.91;5030344;28;20565;-77
2021/06/28 10:54:18;;;;;;;6.60;6.00;;;;;;;23.99;64.04;101500.19;5031966;28;20470;-76
2021/06/28 10:56:48;;;;;;;8.73;7.83;;;;;;;23.26;64.00;101366.16;5030608;28;20662;-77
2021/06/28 10:59:13;;;;;;;7.40;6.80;;;;;;;24.21;64.10;101502.66;5035891;28;20431;-76
2021/06/28 11:01:39;;;;;;;6.53;5.97;;;;;;;24.27;62.66;101506.22;5035470;28;20435;-77
2021/06/28 11:04:07;;;;;;;6.53;6.03;;;;;;;24.25;63.42;101506.50;5028081;28;20192;-76
2021/06/28 11:06:33;;;;;;;8.60;5.10;;;;;;;24.40;62.79;101502.09;5032741;28;20495;-77
2021/06/28 11:09:07;;;;;;;5.60;5.20;;;;;;;24.20;62.23;101494.72;5032496;28;21015;-77
2021/06/28 11:11:45;;;;;;;5.87;5.33;;;;;;;24.40;63.96;101496.63;5034347;28;20481;-76
2021/06/28 11:14:19;;;;;;;5.67;5.10;;;;;;;24.54;61.97;101495.81;5023542;28;20439;-79
2021/06/28 11:16:57;;;;;;;6.90;6.20;;;;;;;24.53;61.78;101485.09;5029742;28;20628;-75
2021/06/28 11:19:58;;;;;;;5.27;4.77;;;;;;;24.53;62.60;101482.34;5029460;28;20859;-75
2021/06/28 11:22:46;;;;;;;5.07;4.67;;;;;;;24.74;63.24;101492.22;5023639;28;20436;-75
2021/06/28 11:25:39;;;;;;;5.17;4.77;;;;;;;24.90;61.73;101486.66;5022284;28;20451;-74
2021/06/28 11:28:04;;;;;;;5.73;5.23;;;;;;;24.83;61.31;101486.97;5015623;28;20442;-75
2021/06/28 11:30:37;;;;;;;5.20;4.60;;;;;;;24.50;61.45;101452.75;5026853;28;20541;-74
2021/06/28 11:33:13;;;;;;;5.53;5.13;;;;;;;24.63;61.16;101487.84;5021800;28;20226;-74